createdAt,value
2022-08-30T00:00:40.643Z,85.70
2022-08-30T00:04:43.385Z,86.80
2022-08-30T00:08:49.904Z,86.80
2022-08-30T00:12:53.191Z,85.70
2022-08-30T00:16:56.236Z,86.60
2022-08-30T00:20:59.017Z,86.20
2022-08-30T00:25:03.140Z,86.30
2022-08-30T00:29:05.898Z,87.10
2022-08-30T00:33:09.138Z,88.10
2022-08-30T00:37:11.902Z,87.60
2022-08-30T00:41:16.035Z,88.40
2022-08-30T00:45:22.102Z,88.50
2022-08-30T00:49:25.636Z,88.80
2022-08-30T00:53:31.729Z,89.10
2022-08-30T00:57:36.746Z,89.10
2022-08-30T01:01:39.976Z,89.10
2022-08-30T01:05:43.757Z,88.80
2022-08-30T01:09:47.082Z,89.50
2022-08-30T01:13:54.264Z,89.70
2022-08-30T01:17:58.057Z,89.50
2022-08-30T01:22:06.537Z,88.40
2022-08-30T01:26:11.553Z,88.90
2022-08-30T01:30:15.117Z,89.20
2022-08-30T01:34:18.029Z,88.90
2022-08-30T01:38:22.899Z,89.70
2022-08-30T01:42:28.042Z,90.10
2022-08-30T01:46:35.916Z,90.30
2022-08-30T01:50:38.698Z,90.20
2022-08-30T01:54:46.019Z,90.50
2022-08-30T01:58:50.547Z,90.50
2022-08-30T02:02:53.464Z,90.70
2022-08-30T02:06:56.304Z,90.90
2022-08-30T02:10:59.966Z,91.10
2022-08-30T02:15:04.186Z,91.00
2022-08-30T02:19:06.968Z,91.30
2022-08-30T02:23:09.910Z,91.40
2022-08-30T02:27:12.702Z,91.60
2022-08-30T02:31:17.147Z,91.80
2022-08-30T02:35:22.287Z,91.70
2022-08-30T02:39:25.078Z,91.90
2022-08-30T02:43:28.327Z,91.90
2022-08-30T02:47:32.626Z,92.00
2022-08-30T02:51:35.862Z,92.10
2022-08-30T02:55:38.725Z,92.10
2022-08-30T02:59:44.172Z,92.30
2022-08-30T03:03:48.636Z,92.30
2022-08-30T03:07:51.699Z,92.50
2022-08-30T03:11:54.597Z,92.70
2022-08-30T03:15:57.647Z,93.00
2022-08-30T03:20:02.482Z,93.40
2022-08-30T03:24:05.817Z,93.20
2022-08-30T03:28:08.799Z,92.80
2022-08-30T03:32:11.596Z,92.80
2022-08-30T03:36:15.836Z,92.90
2022-08-30T03:40:20.830Z,92.80
2022-08-30T03:44:24.160Z,92.90
2022-08-30T03:48:27.018Z,93.00
2022-08-30T03:52:31.207Z,93.00
2022-08-30T03:56:34.145Z,93.10
2022-08-30T04:00:37.165Z,93.30
2022-08-30T04:04:40.097Z,94.00
2022-08-30T04:08:45.953Z,93.90
2022-08-30T04:12:49.824Z,93.90
2022-08-30T04:16:52.826Z,93.70
2022-08-30T04:20:55.660Z,93.30
2022-08-30T04:25:00.895Z,93.30
2022-08-30T04:29:03.738Z,93.40
2022-08-30T04:33:06.526Z,93.00
2022-08-30T04:37:10.139Z,92.90
2022-08-30T04:41:20.832Z,92.90
2022-08-30T04:45:23.857Z,93.10
2022-08-30T04:49:26.679Z,93.40
2022-08-30T04:53:29.480Z,93.60
2022-08-30T04:57:34.150Z,93.60
2022-08-30T05:01:45.076Z,93.60
2022-08-30T05:05:49.921Z,93.60
2022-08-30T05:09:52.676Z,93.40
2022-08-30T05:13:57.040Z,93.20
2022-08-30T05:18:00.194Z,93.30
2022-08-30T05:22:03.073Z,93.20
2022-08-30T05:26:07.715Z,93.30
2022-08-30T05:30:13.918Z,93.40
2022-08-30T05:34:16.766Z,92.50
2022-08-30T05:38:19.565Z,90.80
2022-08-30T05:42:22.478Z,87.30
2022-08-30T05:46:29.552Z,83.90
2022-08-30T05:50:34.934Z,79.20
2022-08-30T05:54:39.689Z,80.60
2022-08-30T05:58:43.177Z,83.50
2022-08-30T06:02:47.630Z,84.70
2022-08-30T06:06:50.605Z,85.60
2022-08-30T06:10:53.919Z,85.20
2022-08-30T06:14:56.847Z,84.80
2022-08-30T06:19:01.601Z,85.00
2022-08-30T06:23:04.376Z,85.30
2022-08-30T06:27:07.350Z,84.70
2022-08-30T06:31:11.681Z,85.00
2022-08-30T06:35:15.830Z,85.60
2022-08-30T06:39:18.556Z,86.90
2022-08-30T06:43:21.326Z,88.50
2022-08-30T06:47:24.046Z,88.70
2022-08-30T06:51:31.442Z,89.00
2022-08-30T06:55:34.289Z,89.70
2022-08-30T06:59:37.010Z,89.90
2022-08-30T07:03:40.090Z,90.00
2022-08-30T07:07:44.352Z,89.40
2022-08-30T07:11:47.470Z,89.40
2022-08-30T07:15:50.571Z,88.80
2022-08-30T07:19:53.460Z,88.90
2022-08-30T07:23:59.351Z,88.70
2022-08-30T07:28:02.094Z,88.40
2022-08-30T07:32:05.634Z,87.80
2022-08-30T07:36:09.079Z,88.00
2022-08-30T07:40:14.047Z,88.10
2022-08-30T07:44:16.860Z,88.10
2022-08-30T07:48:19.682Z,86.70
2022-08-30T07:52:22.424Z,85.80
2022-08-30T07:56:26.881Z,84.50
2022-08-30T08:00:29.642Z,84.60
2022-08-30T08:04:33.159Z,84.00
2022-08-30T08:08:36.676Z,82.50
2022-08-30T08:12:40.879Z,81.50
2022-08-30T08:16:44.772Z,80.60
2022-08-30T08:20:47.526Z,79.40
2022-08-30T08:24:50.951Z,79.10
2022-08-30T08:28:55.670Z,78.00
2022-08-30T08:32:58.417Z,76.90
2022-08-30T08:37:01.191Z,76.00
2022-08-30T08:41:10.420Z,76.20
2022-08-30T08:45:18.826Z,75.70
2022-08-30T08:49:24.487Z,74.60
2022-08-30T08:53:46.211Z,74.90
2022-08-30T08:57:52.297Z,74.70
2022-08-30T09:01:59.183Z,75.30
2022-08-30T09:06:05.056Z,74.50
2022-08-30T09:10:08.929Z,73.60
2022-08-30T09:14:16.885Z,73.50
2022-08-30T09:18:22.005Z,73.70
2022-08-30T09:22:27.710Z,73.60
2022-08-30T09:26:33.416Z,73.50
2022-08-30T09:30:36.957Z,72.90
2022-08-30T09:34:44.823Z,72.30
2022-08-30T09:38:57.190Z,73.00
2022-08-30T09:43:03.940Z,72.30
2022-08-30T09:47:20.957Z,71.20
2022-08-30T09:51:44.494Z,71.30
2022-08-30T09:55:56.697Z,71.70
2022-08-30T10:00:06.223Z,70.40
2022-08-30T10:04:16.397Z,69.60
2022-08-30T10:08:27.891Z,69.30
2022-08-30T10:12:36.690Z,69.00
2022-08-30T10:16:51.985Z,68.10
2022-08-30T10:20:59.185Z,67.60
2022-08-30T10:25:09.191Z,67.70
2022-08-30T10:29:15.797Z,68.20
2022-08-30T10:33:23.041Z,68.00
2022-08-30T10:37:32.109Z,67.30
2022-08-30T10:41:40.386Z,66.90
2022-08-30T10:45:45.989Z,67.20
2022-08-30T10:49:50.326Z,67.70
2022-08-30T10:53:58.477Z,67.20
2022-08-30T10:58:05.296Z,67.60
2022-08-30T11:02:24.473Z,66.30
2022-08-30T11:06:37.442Z,65.40
2022-08-30T11:10:50.313Z,65.50
2022-08-30T11:14:55.596Z,66.20
2022-08-30T11:18:59.182Z,63.70
2022-08-30T11:23:32.870Z,63.90
2022-08-30T11:27:51.550Z,64.70
2022-08-30T11:31:57.206Z,65.30
2022-08-30T11:36:00.924Z,63.90
2022-08-30T11:40:06.739Z,63.90
2022-08-30T11:44:30.204Z,62.40
2022-08-30T11:48:53.543Z,61.70
2022-08-30T11:53:03.824Z,62.10
2022-08-30T11:57:14.576Z,62.20
2022-08-30T12:01:41.983Z,60.60
2022-08-30T12:05:58.891Z,59.50
2022-08-30T12:10:06.494Z,58.90
2022-08-30T12:14:29.488Z,58.40
2022-08-30T12:18:44.556Z,58.60
2022-08-30T12:22:47.410Z,57.60
2022-08-30T12:26:53.232Z,57.40
2022-08-30T12:30:56.003Z,56.70
2022-08-30T12:35:02.133Z,56.10
2022-08-30T12:39:12.679Z,56.90
2022-08-30T12:43:26.589Z,57.50
2022-08-30T12:47:35.345Z,57.20
2022-08-30T12:51:42.524Z,57.50
2022-08-30T12:55:53.793Z,57.50
2022-08-30T12:59:59.746Z,56.40
2022-08-30T13:04:15.244Z,56.50
2022-08-30T13:08:22.724Z,55.90
2022-08-30T13:12:27.866Z,55.20
2022-08-30T13:16:42.248Z,55.10
2022-08-30T13:20:48.005Z,53.30
2022-08-30T13:24:52.929Z,52.90
2022-08-30T13:28:59.396Z,53.10
2022-08-30T13:33:02.581Z,52.70
2022-08-30T13:37:05.681Z,52.70
2022-08-30T13:41:10.865Z,53.80
2022-08-30T13:49:46.630Z,54.40
2022-08-30T13:53:53.597Z,54.80
2022-08-30T13:57:58.328Z,55.00
2022-08-30T14:02:11.471Z,55.00
2022-08-30T14:06:32.289Z,54.60
2022-08-30T14:10:46.642Z,54.20
2022-08-30T14:14:52.301Z,54.60
2022-08-30T14:19:18.421Z,53.20
2022-08-30T14:23:21.551Z,52.90
2022-08-30T14:27:24.700Z,52.70
2022-08-30T14:31:32.726Z,52.40
2022-08-30T14:35:36.683Z,51.80
2022-08-30T14:39:39.554Z,51.80
2022-08-30T14:43:42.799Z,51.20
2022-08-30T14:47:47.639Z,51.10
2022-08-30T14:51:50.849Z,50.00
2022-08-30T14:55:53.908Z,49.30
2022-08-30T14:59:56.640Z,49.70
2022-08-30T15:04:01.465Z,48.80
2022-08-30T15:08:04.534Z,48.10
2022-08-30T15:12:07.862Z,48.10
2022-08-30T15:16:12.782Z,47.70
2022-08-30T15:20:20.014Z,48.00
2022-08-30T15:24:29.749Z,47.70
2022-08-30T15:28:32.874Z,47.70
2022-08-30T15:32:35.652Z,46.80
2022-08-30T15:36:43.320Z,46.50
2022-08-30T15:40:46.311Z,46.30
2022-08-30T15:44:51.882Z,46.20
2022-08-30T15:48:56.750Z,46.00
2022-08-30T15:53:02.058Z,45.90
2022-08-30T15:57:05.849Z,45.90
2022-08-30T16:01:09.418Z,45.40
2022-08-30T16:05:12.426Z,45.60
2022-08-30T16:09:17.467Z,45.70
2022-08-30T16:13:21.019Z,45.00
2022-08-30T16:17:24.041Z,45.30
2022-08-30T16:21:28.750Z,45.10
2022-08-30T16:25:40.064Z,45.90
2022-08-30T16:29:44.102Z,45.00
2022-08-30T16:33:47.356Z,45.00
2022-08-30T16:37:55.458Z,45.90
2022-08-30T16:42:03.095Z,46.80
2022-08-30T16:46:08.577Z,46.20
2022-08-30T16:50:12.253Z,46.40
2022-08-30T16:54:15.583Z,46.70
2022-08-30T16:58:21.927Z,46.80
2022-08-30T17:02:25.670Z,46.60
2022-08-30T17:06:28.578Z,47.00
2022-08-30T17:10:33.365Z,47.30
2022-08-30T17:14:37.609Z,47.40
2022-08-30T17:18:40.532Z,47.80
2022-08-30T17:22:46.245Z,48.40
2022-08-30T17:26:49.095Z,48.90
2022-08-30T17:30:53.235Z,49.90
2022-08-30T17:34:56.170Z,50.00
2022-08-30T17:38:59.597Z,50.40
2022-08-30T17:43:02.501Z,50.60
2022-08-30T17:47:07.160Z,51.20
2022-08-30T17:51:10.461Z,51.50
2022-08-30T17:55:13.525Z,51.90
2022-08-30T17:59:18.062Z,52.30
2022-08-30T18:03:24.273Z,52.70
2022-08-30T18:07:27.219Z,53.00
2022-08-30T18:11:30.005Z,53.30
2022-08-30T18:15:32.968Z,53.50
2022-08-30T18:19:46.070Z,53.50
2022-08-30T18:23:50.790Z,53.80
2022-08-30T18:27:58.870Z,54.10
2022-08-30T18:32:03.265Z,54.10
2022-08-30T18:36:09.169Z,54.40
2022-08-30T18:40:18.768Z,54.50
2022-08-30T18:44:33.435Z,54.80
2022-08-30T18:48:36.819Z,55.10
2022-08-30T18:52:41.083Z,55.20
2022-08-30T18:56:47.991Z,55.40
2022-08-30T19:00:52.360Z,55.70
2022-08-30T19:04:56.251Z,55.90
2022-08-30T19:09:00.530Z,56.10
2022-08-30T19:13:03.781Z,56.20
2022-08-30T19:17:07.360Z,56.80
2022-08-30T19:21:13.684Z,57.10
2022-08-30T19:25:20.529Z,57.10
2022-08-30T19:29:23.329Z,57.50
2022-08-30T19:33:27.155Z,57.80
2022-08-30T19:37:30.457Z,58.10
2022-08-30T19:41:35.224Z,58.60
2022-08-30T19:45:39.211Z,58.90
2022-08-30T19:49:42.002Z,59.20
2022-08-30T19:53:44.813Z,59.40
2022-08-30T19:57:49.532Z,59.60
2022-08-30T20:01:52.343Z,59.90
2022-08-30T20:05:55.183Z,60.10
2022-08-30T20:10:00.211Z,60.40
2022-08-30T20:14:04.291Z,60.60
2022-08-30T20:18:14.430Z,60.90
2022-08-30T20:22:18.821Z,61.50
2022-08-30T20:26:22.359Z,62.10
2022-08-30T20:30:37.877Z,62.90
2022-08-30T20:34:40.686Z,63.10
2022-08-30T20:38:43.687Z,63.40
2022-08-30T20:42:46.615Z,63.90
2022-08-30T20:46:50.940Z,63.80
2022-08-30T20:50:53.726Z,63.80
2022-08-30T20:54:56.512Z,64.20
2022-08-30T20:59:01.889Z,64.60
2022-08-30T21:03:11.457Z,65.00
2022-08-30T21:07:30.490Z,65.50
2022-08-30T21:11:34.298Z,65.90
2022-08-30T21:15:38.144Z,66.30
2022-08-30T21:19:44.153Z,66.90
2022-08-30T21:23:47.118Z,67.60
2022-08-30T21:27:49.918Z,68.60
2022-08-30T21:31:52.671Z,69.30
2022-08-30T21:36:16.780Z,70.10
2022-08-30T21:40:22.646Z,70.70
2022-08-30T21:44:27.723Z,71.20
2022-08-30T21:48:30.507Z,72.10
2022-08-30T21:52:36.151Z,72.80
2022-08-30T21:56:40.796Z,73.30
2022-08-30T22:00:43.636Z,73.90
2022-08-30T22:04:46.402Z,74.30
2022-08-30T22:08:50.601Z,74.90
2022-08-30T22:12:55.886Z,74.90
2022-08-30T22:16:58.744Z,75.00
2022-08-30T22:21:03.673Z,75.10
2022-08-30T22:25:11.700Z,75.40
2022-08-30T22:29:14.801Z,75.50
2022-08-30T22:33:19.779Z,75.50
2022-08-30T22:37:22.618Z,75.60
2022-08-30T22:41:31.473Z,75.80
2022-08-30T22:45:34.457Z,75.80
2022-08-30T22:49:37.219Z,76.20
2022-08-30T22:53:40.660Z,76.40
2022-08-30T22:57:44.757Z,76.90
2022-08-30T23:01:47.570Z,76.90
2022-08-30T23:05:50.393Z,77.10
2022-08-30T23:09:53.190Z,77.70
2022-08-30T23:13:57.646Z,77.80
2022-08-30T23:18:00.405Z,77.90
2022-08-30T23:22:03.140Z,78.00
2022-08-30T23:26:23.816Z,78.50
2022-08-30T23:30:45.774Z,78.70
2022-08-30T23:35:06.461Z,79.10
2022-08-30T23:39:26.962Z,79.40
2022-08-30T23:43:47.366Z,79.60
2022-08-30T23:48:09.088Z,79.90
2022-08-30T23:52:29.548Z,80.20
2022-08-30T23:56:50.919Z,80.30
